首页
METAR-TAF:

METAR-TAF

机场 :

纳塔尔, 北里约格朗德, 巴西

纬度: 05-46-05S, 经度: 035-22-34W, 海拔: 88米

当前天气观测

该预报发布于1小时和9分钟前的23:00 UTC
风速7节,风向
温度 26°C
湿度 79%
气压 1014 hPa
能见度10公里或以上
1500米以下无云,无积雨云

METAR: SBSG 172300Z 18007KT CAVOK 26/22 Q1014

时间: 21:09 (00:09 UTC)

预报

该预报发布于2小时和9分钟前的22:00 UTC
预报有效从18日的 00点(UTC)到 18日的 24点(UTC)
风速10节,风向
能见度10公里或以上
散云层高于2500英尺
成为
从 18日的 02点(UTC)到 18日的 04点(UTC)
风速4节,风向西南
成为
从 18日的 10点(UTC)到 18日的 12点(UTC)
风速15节,风向南转南东
成为
从 18日的 21点(UTC)到 18日的 23点(UTC)
风速9节,风向南转南东

TAF: SBSG 172200Z 1800/1824 19010KT 9999 SCT025 TN23/1808Z TX32/1816Z BECMG 1802/1804 22004KT BECMG 1810/1812 16015KT BECMG 1821/1823 16009KT RMK PEU

超过4000个机场的气象观测和天气预报(METAR&TAF报告)。

可查询的气象台以黄色和红色小点在地图上表示。

将鼠标移到小点上方,可查看气象台名称。

然后点击查看天气观测和预报。

如需切换地图:点击带黑十字的绿色按钮放大地图;点击带横线的绿色按钮缩小地图;或者点击绿色箭头查看邻近地区的地图。


METAR-TAF: